Time;durP1;ratioP1;P1;durP2;ratioP2;P2;SDS_P1;SDS_P2;PMS_P1;PMS_P2;Temp;Humidity;BMP_temperature;BMP_pressure;BME280_temperature;BME280_humidity;BME280_pressure;Samples;Min_cycle;Max_cycle;Signal;HPM_P1;HPM_P2
2023/10/04 00:01:10;;;;;;;;;;;;;;;;;;5051430;28;19909;-60
2023/10/04 00:03:38;;;;;;;;;;;;;;;;;;5048713;28;19943;-60
2023/10/04 00:06:03;;;;;;;;;;;;;;;;;;5041989;28;19957;-60
2023/10/04 00:08:29;;;;;;;;;;;;;;;;;;5050657;28;20284;-59
2023/10/04 00:10:55;;;;;;;;;;;;;;;;;;5053318;28;19919;-61
2023/10/04 00:13:21;;;;;;;;;;;;;;;;;;5054476;28;19921;-60
2023/10/04 00:15:47;;;;;;;;;;;;;;;;;;5040935;28;19917;-60
2023/10/04 00:18:15;;;;;;;;;;;;;;;;;;5039139;28;19999;-59
2023/10/04 00:20:40;;;;;;;;;;;;;;;;;;5048134;28;20536;-59
2023/10/04 00:23:06;;;;;;;;;;;;;;;;;;5036081;28;19924;-60
2023/10/04 00:25:33;;;;;;;;;;;;;;;;;;5044669;28;19967;-60
2023/10/04 00:27:59;;;;;;;;;;;;;;;;;;5054639;28;19917;-59
2023/10/04 00:30:29;;;;;;;;;;;;;;;;;;5055305;28;19992;-59
2023/10/04 00:32:55;;;;;;;;;;;;;;;;;;5055413;28;19920;-58
2023/10/04 00:35:22;;;;;;;;;;;;;;;;;;5039012;28;20304;-57
2023/10/04 00:37:51;;;;;;;;;;;;;;;;;;5035992;28;20369;-57
2023/10/04 00:40:18;;;;;;;;;;;;;;;;;;5035606;28;19916;-57
2023/10/04 00:42:44;;;;;;;;;;;;;;;;;;5037915;28;19917;-59
2023/10/04 00:45:13;;;;;;;;;;;;;;;;;;5045996;28;20031;-59
2023/10/04 00:47:39;;;;;;;;;;;;;;;;;;5055313;28;20372;-59
2023/10/04 00:50:14;;;;;;;;;;;;;;;;;;5055420;28;19948;-59
2023/10/04 00:52:40;;;;;;;;;;;;;;;;;;5037431;28;20008;-59
2023/10/04 00:55:06;;;;;;;;;;;;;;;;;;5036054;28;20007;-58
2023/10/04 00:57:32;;;;;;;;;;;;;;;;;;5036202;28;19916;-59
2023/10/04 00:59:58;;;;;;;;;;;;;;;;;;5053314;28;19909;-59
2023/10/04 01:02:24;;;;;;;;;;;;;;;;;;5055198;28;19935;-59
2023/10/04 01:04:50;;;;;;;;;;;;;;;;;;5043368;28;19952;-60
2023/10/04 01:07:16;;;;;;;;;;;;;;;;;;5035331;28;20046;-59
2023/10/04 01:09:42;;;;;;;;;;;;;;;;;;5035600;28;20373;-58
2023/10/04 01:12:08;;;;;;;;;;;;;;;;;;5035267;28;19913;-60
2023/10/04 01:14:38;;;;;;;;;;;;;;;;;;5036476;28;19970;-60
2023/10/04 01:17:03;;;;;;;;;;;;;;;;;;5040846;28;19924;-60
2023/10/04 01:19:30;;;;;;;;;;;;;;;;;;5054735;28;19989;-58
2023/10/04 01:21:56;;;;;;;;;;;;;;;;;;5053916;28;19913;-60
2023/10/04 01:24:22;;;;;;;;;;;;;;;;;;5044929;28;20292;-60
2023/10/04 01:26:48;;;;;;;;;;;;;;;;;;5035514;28;19916;-58
2023/10/04 01:29:15;;;;;;;;;;;;;;;;;;5049117;28;20347;-59
2023/10/04 01:31:41;;;;;;;;;;;;;;;;;;5054259;28;19913;-60
2023/10/04 01:34:07;;;;;;;;;;;;;;;;;;5048215;28;19979;-60
2023/10/04 01:36:36;;;;;;;;;;;;;;;;;;5053967;28;20361;-58
2023/10/04 01:39:04;;;;;;;;;;;;;;;;;;5054854;28;20357;-58
2023/10/04 01:41:30;;;;;;;;;;;;;;;;;;5053758;28;19913;-58
2023/10/04 01:44:02;;;;;;;;;;;;;;;;;;5052972;28;19944;-58
2023/10/04 01:46:28;;;;;;;;;;;;;;;;;;5040466;28;19924;-58
2023/10/04 01:48:56;;;;;;;;;;;;;;;;;;5042660;28;20289;-59
2023/10/04 01:51:22;;;;;;;;;;;;;;;;;;5049761;28;19975;-59
2023/10/04 01:53:50;;;;;;;;;;;;;;;;;;5052217;28;19913;-59
2023/10/04 01:56:17;;;;;;;;;;;;;;;;;;5054117;28;19909;-59
2023/10/04 01:58:48;;;;;;;;;;;;;;;;;;5053605;28;19913;-59
2023/10/04 02:01:14;;;;;;;;;;;;;;;;;;5050192;28;19924;-58
2023/10/04 02:03:40;;;;;;;;;;;;;;;;;;5040936;28;19917;-59
2023/10/04 02:06:08;;;;;;;;;;;;;;;;;;5032865;28;19991;-58
2023/10/04 02:08:34;;;;;;;;;;;;;;;;;;5039136;28;19913;-58
2023/10/04 02:11:00;;;;;;;;;;;;;;;;;;5053815;28;20360;-59
2023/10/04 02:13:27;;;;;;;;;;;;;;;;;;5051102;28;19925;-59
2023/10/04 02:15:53;;;;;;;;;;;;;;;;;;5052891;28;19913;-58
2023/10/04 02:18:19;;;;;;;;;;;;;;;;;;5053557;28;19913;-59
2023/10/04 02:20:53;;;;;;;;;;;;;;;;;;5053839;28;19982;-57
2023/10/04 02:23:19;;;;;;;;;;;;;;;;;;5050442;28;19976;-58
2023/10/04 02:25:45;;;;;;;;;;;;;;;;;;5033999;28;19937;-58
2023/10/04 02:28:11;;;;;;;;;;;;;;;;;;5051853;28;19917;-59
2023/10/04 02:30:37;;;;;;;;;;;;;;;;;;5052757;28;19954;-60
2023/10/04 02:33:13;;;;;;;;;;;;;;;;;;5042694;28;20078;-58
2023/10/04 02:35:43;;;;;;;;;;;;;;;;;;5053296;28;20407;-59
2023/10/04 02:38:16;;;;;;;;;;;;;;;;;;5053758;28;19955;-59
2023/10/04 02:40:42;;;;;;;;;;;;;;;;;;5035213;28;19919;-58
2023/10/04 02:43:08;;;;;;;;;;;;;;;;;;5049678;28;19920;-60
2023/10/04 02:45:36;;;;;;;;;;;;;;;;;;5050284;28;19913;-58
2023/10/04 02:48:03;;;;;;;;;;;;;;;;;;5053460;28;19917;-58
2023/10/04 02:50:29;;;;;;;;;;;;;;;;;;5052312;28;19920;-60
2023/10/04 02:52:56;;;;;;;;;;;;;;;;;;5042131;28;19963;-60
2023/10/04 02:55:22;;;;;;;;;;;;;;;;;;5048171;28;19935;-60
2023/10/04 02:57:47;;;;;;;;;;;;;;;;;;5052089;28;19920;-60
2023/10/04 03:00:16;;;;;;;;;;;;;;;;;;5050866;28;19971;-60
2023/10/04 03:02:42;;;;;;;;;;;;;;;;;;5050266;28;19967;-59
2023/10/04 03:05:09;;;;;;;;;;;;;;;;;;5043302;28;20063;-59
2023/10/04 03:07:35;;;;;;;;;;;;;;;;;;5045965;28;19917;-59
2023/10/04 03:10:02;;;;;;;;;;;;;;;;;;5052753;28;19909;-58
2023/10/04 03:12:28;;;;;;;;;;;;;;;;;;5052270;28;20295;-58
2023/10/04 03:14:56;;;;;;;;;;;;;;;;;;5043004;28;19913;-58
2023/10/04 03:17:22;;;;;;;;;;;;;;;;;;5055076;28;20303;-58
2023/10/04 03:19:48;;;;;;;;;;;;;;;;;;5050290;28;19954;-58
2023/10/04 03:22:19;;;;;;;;;;;;;;;;;;5051922;28;20047;-59
2023/10/04 03:24:46;;;;;;;;;;;;;;;;;;5045324;28;20422;-59
2023/10/04 03:27:12;;;;;;;;;;;;;;;;;;5051940;28;19928;-58
2023/10/04 03:29:39;;;;;;;;;;;;;;;;;;5052280;28;19960;-59
2023/10/04 03:32:05;;;;;;;;;;;;;;;;;;5052631;28;19999;-58
2023/10/04 03:34:31;;;;;;;;;;;;;;;;;;5048087;28;19917;-58
2023/10/04 03:37:08;;;;;;;;;;;;;;;;;;5032740;28;20412;-58
2023/10/04 03:39:35;;;;;;;;;;;;;;;;;;5035975;28;19912;-59
2023/10/04 03:42:01;;;;;;;;;;;;;;;;;;5042531;28;20008;-58
2023/10/04 03:44:27;;;;;;;;;;;;;;;;;;5048265;28;20001;-58
2023/10/04 03:46:53;;;;;;;;;;;;;;;;;;5032568;28;19916;-58
2023/10/04 03:49:21;;;;;;;;;;;;;;;;;;5043859;28;20422;-60
2023/10/04 03:51:50;;;;;;;;;;;;;;;;;;5045608;28;19913;-57
2023/10/04 03:54:15;;;;;;;;;;;;;;;;;;5025119;28;19917;-60
2023/10/04 03:56:41;;;;;;;;;;;;;;;;;;5048326;28;20331;-59
2023/10/04 03:59:11;;;;;;;;;;;;;;;;;;5045922;28;19949;-60
2023/10/04 04:01:37;;;;;;;;;;;;;;;;;;5051059;28;19913;-59
2023/10/04 04:04:03;;;;;;;;;;;;;;;;;;5041578;28;19920;-58
2023/10/04 04:06:29;;;;;;;;;;;;;;;;;;5041150;28;19916;-58
2023/10/04 04:08:56;;;;;;;;;;;;;;;;;;5050871;28;19913;-59
2023/10/04 04:11:22;;;;;;;;;;;;;;;;;;5046139;28;20060;-60
2023/10/04 04:13:48;;;;;;;;;;;;;;;;;;5033142;28;19999;-61
2023/10/04 04:16:17;;;;;;;;;;;;;;;;;;5044924;28;19983;-62
2023/10/04 04:18:44;;;;;;;;;;;;;;;;;;5052073;28;20003;-61
2023/10/04 04:21:10;;;;;;;;;;;;;;;;;;5046802;28;19923;-60
2023/10/04 04:23:36;;;;;;;;;;;;;;;;;;5048219;28;19921;-61
2023/10/04 04:26:05;;;;;;;;;;;;;;;;;;5049725;28;19921;-60
2023/10/04 04:28:31;;;;;;;;;;;;;;;;;;5044652;28;19924;-60
2023/10/04 04:30:58;;;;;;;;;;;;;;;;;;5046271;28;20427;-60
2023/10/04 04:33:28;;;;;;;;;;;;;;;;;;5051825;28;19909;-60
2023/10/04 04:36:00;;;;;;;;;;;;;;;;;;5045994;28;19963;-60
2023/10/04 04:38:28;;;;;;;;;;;;;;;;;;5043809;28;20320;-61
2023/10/04 04:40:57;;;;;;;;;;;;;;;;;;5047681;28;19909;-60
2023/10/04 04:45:51;;;;;;;;;;;;;;;;;;5051433;28;19909;-61
2023/10/04 04:48:16;;;;;;;;;;;;;;;;;;5050996;28;20280;-60
2023/10/04 04:50:42;;;;;;;;;;;;;;;;;;5048925;28;19960;-60
2023/10/04 04:53:14;;;;;;;;;;;;;;;;;;5042207;28;19999;-60
2023/10/04 04:55:40;;;;;;;;;;;;;;;;;;5046108;28;19917;-60
2023/10/04 04:58:06;;;;;;;;;;;;;;;;;;5054538;28;20004;-61
2023/10/04 05:00:33;;;;;;;;;;;;;;;;;;5058457;28;19919;-61
2023/10/04 05:03:00;;;;;;;;;;;;;;;;;;5055063;28;19992;-60
2023/10/04 05:05:26;;;;;;;;;;;;;;;;;;5049622;28;20320;-61
2023/10/04 05:07:52;;;;;;;;;;;;;;;;;;5050824;28;20280;-60
2023/10/04 05:10:18;;;;;;;;;;;;;;;;;;5052883;28;19971;-60
2023/10/04 05:12:47;;;;;;;;;;;;;;;;;;5050771;28;19963;-60
2023/10/04 05:15:23;;;;;;;;;;;;;;;;;;5052150;28;20422;-60
2023/10/04 05:17:50;;;;;;;;;;;;;;;;;;5043639;28;19913;-61
2023/10/04 05:20:19;;;;;;;;;;;;;;;;;;5044304;28;19909;-61
2023/10/04 05:22:45;;;;;;;;;;;;;;;;;;5051084;28;19920;-60
2023/10/04 05:25:11;;;;;;;;;;;;;;;;;;5053286;28;20419;-60
2023/10/04 05:27:37;;;;;;;;;;;;;;;;;;5054181;28;19920;-60
2023/10/04 05:30:04;;;;;;;;;;;;;;;;;;5052955;28;20015;-60
2023/10/04 05:32:30;;;;;;;;;;;;;;;;;;5054032;28;20011;-60
2023/10/04 05:34:55;;;;;;;;;;;;;;;;;;5053756;28;19996;-60
2023/10/04 05:37:22;;;;;;;;;;;;;;;;;;5051998;28;19909;-60
2023/10/04 05:39:48;;;;;;;;;;;;;;;;;;5047794;28;19921;-59
2023/10/04 05:42:14;;;;;;;;;;;;;;;;;;5051764;28;19961;-60
2023/10/04 05:44:39;;;;;;;;;;;;;;;;;;5050431;28;19997;-59
2023/10/04 05:47:05;;;;;;;;;;;;;;;;;;5052202;28;19916;-59
2023/10/04 05:49:31;;;;;;;;;;;;;;;;;;5042310;28;19919;-60
2023/10/04 05:51:58;;;;;;;;;;;;;;;;;;5048464;28;20309;-59
2023/10/04 05:54:23;;;;;;;;;;;;;;;;;;5053346;28;19982;-60
2023/10/04 05:56:50;;;;;;;;;;;;;;;;;;5053139;28;19909;-60
2023/10/04 05:59:16;;;;;;;;;;;;;;;;;;5047392;28;19913;-59
2023/10/04 06:01:42;;;;;;;;;;;;;;;;;;5053511;28;19908;-60
2023/10/04 06:04:10;;;;;;;;;;;;;;;;;;5053233;28;19913;-60
2023/10/04 06:06:36;;;;;;;;;;;;;;;;;;5053257;28;20392;-60
2023/10/04 06:09:04;;;;;;;;;;;;;;;;;;5052701;28;19909;-60
2023/10/04 06:11:30;;;;;;;;;;;;;;;;;;5052518;28;20361;-60
2023/10/04 06:13:56;;;;;;;;;;;;;;;;;;5053243;28;19916;-60
2023/10/04 06:16:22;;;;;;;;;;;;;;;;;;5049697;28;19909;-60
2023/10/04 06:18:51;;;;;;;;;;;;;;;;;;5053347;28;19916;-60
2023/10/04 06:21:17;;;;;;;;;;;;;;;;;;5050659;28;20310;-58
2023/10/04 06:23:43;;;;;;;;;;;;;;;;;;5044131;28;19920;-58
2023/10/04 06:26:09;;;;;;;;;;;;;;;;;;5052516;28;19913;-58
2023/10/04 06:28:35;;;;;;;;;;;;;;;;;;5050096;28;19948;-58
2023/10/04 06:31:01;;;;;;;;;;;;;;;;;;5049838;28;19986;-60
2023/10/04 06:33:27;;;;;;;;;;;;;;;;;;5051187;28;19956;-60
2023/10/04 06:35:53;;;;;;;;;;;;;;;;;;5052807;28;19908;-61
2023/10/04 06:38:20;;;;;;;;;;;;;;;;;;5052675;28;19916;-61
2023/10/04 06:40:46;;;;;;;;;;;;;;;;;;5051829;28;19908;-60
2023/10/04 06:43:14;;;;;;;;;;;;;;;;;;5052611;28;20008;-60
2023/10/04 06:45:40;;;;;;;;;;;;;;;;;;5044258;28;19917;-60
2023/10/04 06:48:06;;;;;;;;;;;;;;;;;;5052491;28;20340;-60
2023/10/04 06:50:32;;;;;;;;;;;;;;;;;;5044310;28;19940;-60
2023/10/04 06:52:58;;;;;;;;;;;;;;;;;;5052497;28;20331;-60
2023/10/04 06:55:24;;;;;;;;;;;;;;;;;;5049249;28;19927;-60
2023/10/04 06:57:50;;;;;;;;;;;;;;;;;;5051832;28;19956;-60
2023/10/04 07:00:17;;;;;;;;;;;;;;;;;;5051315;28;19913;-60
2023/10/04 07:02:43;;;;;;;;;;;;;;;;;;5052520;28;20365;-60
2023/10/04 07:05:09;;;;;;;;;;;;;;;;;;5035493;28;19916;-60
2023/10/04 07:07:36;;;;;;;;;;;;;;;;;;5051756;28;20422;-60
2023/10/04 07:10:02;;;;;;;;;;;;;;;;;;5050430;28;19916;-60
2023/10/04 07:12:31;;;;;;;;;;;;;;;;;;5052328;28;19909;-60
2023/10/04 07:14:57;;;;;;;;;;;;;;;;;;5052082;28;19920;-60
2023/10/04 07:17:23;;;;;;;;;;;;;;;;;;5051946;28;19916;-61
2023/10/04 07:19:49;;;;;;;;;;;;;;;;;;5044739;28;19913;-59
2023/10/04 07:22:18;;;;;;;;;;;;;;;;;;5044157;28;20300;-59
2023/10/04 07:24:47;;;;;;;;;;;;;;;;;;5044772;28;19931;-60
2023/10/04 07:27:12;;;;;;;;;;;;;;;;;;5020409;28;20382;-61
2023/10/04 07:29:39;;;;;;;;;;;;;;;;;;5051722;28;19958;-60
2023/10/04 07:32:05;;;;;;;;;;;;;;;;;;5038496;28;19910;-61
2023/10/04 07:34:32;;;;;;;;;;;;;;;;;;5051742;28;19909;-60
2023/10/04 07:36:59;;;;;;;;;;;;;;;;;;5051396;28;20364;-60
2023/10/04 07:39:25;;;;;;;;;;;;;;;;;;5049835;28;20005;-60
2023/10/04 07:41:51;;;;;;;;;;;;;;;;;;5038221;28;19945;-60
2023/10/04 07:44:17;;;;;;;;;;;;;;;;;;5051718;28;20017;-61
2023/10/04 07:46:43;;;;;;;;;;;;;;;;;;5051247;28;19913;-60
2023/10/04 07:49:09;;;;;;;;;;;;;;;;;;5051488;28;19999;-60
2023/10/04 07:51:35;;;;;;;;;;;;;;;;;;5038226;28;19913;-60
2023/10/04 07:54:02;;;;;;;;;;;;;;;;;;5046865;28;19991;-61
2023/10/04 07:56:28;;;;;;;;;;;;;;;;;;5049649;28;19966;-60
2023/10/04 07:58:54;;;;;;;;;;;;;;;;;;5051653;28;20379;-61
2023/10/04 08:01:20;;;;;;;;;;;;;;;;;;5039481;28;19955;-60
2023/10/04 08:03:47;;;;;;;;;;;;;;;;;;5051517;28;19959;-60
2023/10/04 08:06:14;;;;;;;;;;;;;;;;;;5050969;28;20265;-61
2023/10/04 08:08:45;;;;;;;;;;;;;;;;;;5051718;28;19960;-61
2023/10/04 08:11:11;;;;;;;;;;;;;;;;;;5050954;28;20366;-60
2023/10/04 08:13:37;;;;;;;;;;;;;;;;;;5051445;28;19951;-61
2023/10/04 08:16:03;;;;;;;;;;;;;;;;;;5051014;28;20281;-61
2023/10/04 08:18:29;;;;;;;;;;;;;;;;;;5051500;28;19909;-61
2023/10/04 08:20:55;;;;;;;;;;;;;;;;;;5035630;28;19913;-60
2023/10/04 08:23:25;;;;;;;;;;;;;;;;;;5051257;28;20369;-61
2023/10/04 08:25:52;;;;;;;;;;;;;;;;;;5051457;28;20276;-60
2023/10/04 08:28:18;;;;;;;;;;;;;;;;;;5051154;28;19920;-61
2023/10/04 08:30:44;;;;;;;;;;;;;;;;;;5051299;28;20001;-60
2023/10/04 08:33:10;;;;;;;;;;;;;;;;;;5053359;28;19913;-60
2023/10/04 08:35:36;;;;;;;;;;;;;;;;;;5050335;28;20361;-60
2023/10/04 08:38:05;;;;;;;;;;;;;;;;;;5053306;28;19917;-60
2023/10/04 08:40:31;;;;;;;;;;;;;;;;;;5054797;28;20422;-59
2023/10/04 08:42:58;;;;;;;;;;;;;;;;;;5054958;28;19909;-59
2023/10/04 08:45:29;;;;;;;;;;;;;;;;;;5054622;28;19995;-59
2023/10/04 08:47:56;;;;;;;;;;;;;;;;;;5054399;28;20034;-59
2023/10/04 08:50:23;;;;;;;;;;;;;;;;;;5054584;28;19909;-60
2023/10/04 08:52:49;;;;;;;;;;;;;;;;;;5055120;28;20434;-59
2023/10/04 08:55:17;;;;;;;;;;;;;;;;;;5052993;28;20007;-59
2023/10/04 08:57:43;;;;;;;;;;;;;;;;;;5052541;28;19917;-60
2023/10/04 09:00:17;;;;;;;;;;;;;;;;;;5049644;28;20039;-60
2023/10/04 09:02:43;;;;;;;;;;;;;;;;;;5054101;28;19924;-59
2023/10/04 09:05:10;;;;;;;;;;;;;;;;;;5052081;28;19917;-59
2023/10/04 09:07:35;;;;;;;;;;;;;;;;;;5054363;28;20281;-59
2023/10/04 09:10:01;;;;;;;;;;;;;;;;;;5053955;28;19909;-60
2023/10/04 09:12:27;;;;;;;;;;;;;;;;;;5054155;28;19971;-60
2023/10/04 09:14:55;;;;;;;;;;;;;;;;;;5053927;28;19951;-60
2023/10/04 09:17:24;;;;;;;;;;;;;;;;;;5052737;28;20035;-60
2023/10/04 09:19:50;;;;;;;;;;;;;;;;;;5054159;28;20282;-60
2023/10/04 09:22:18;;;;;;;;;;;;;;;;;;5053932;28;19913;-59
2023/10/04 09:24:45;;;;;;;;;;;;;;;;;;5054032;28;20393;-59
2023/10/04 09:27:11;;;;;;;;;;;;;;;;;;5049913;28;19923;-59
2023/10/04 09:29:37;;;;;;;;;;;;;;;;;;5053000;28;19919;-59
2023/10/04 09:32:05;;;;;;;;;;;;;;;;;;5053724;28;19916;-60
2023/10/04 09:34:33;;;;;;;;;;;;;;;;;;5054181;28;19963;-60
2023/10/04 09:36:59;;;;;;;;;;;;;;;;;;5053765;28;19928;-60
2023/10/04 09:39:27;;;;;;;;;;;;;;;;;;5053619;28;19954;-60
2023/10/04 09:41:54;;;;;;;;;;;;;;;;;;5053221;28;19920;-60
2023/10/04 09:44:20;;;;;;;;;;;;;;;;;;5052563;28;19932;-60
2023/10/04 09:46:48;;;;;;;;;;;;;;;;;;5053295;28;19923;-59
2023/10/04 09:49:16;;;;;;;;;;;;;;;;;;5053503;28;20429;-60
2023/10/04 09:51:42;;;;;;;;;;;;;;;;;;5053751;28;20217;-61
2023/10/04 09:54:09;;;;;;;;;;;;;;;;;;5044141;28;20080;-61
2023/10/04 09:56:35;;;;;;;;;;;;;;;;;;5048046;28;19925;-60
2023/10/04 09:59:01;;;;;;;;;;;;;;;;;;5051992;28;20067;-61
2023/10/04 10:01:28;;;;;;;;;;;;;;;;;;5052838;28;19953;-61
2023/10/04 10:03:54;;;;;;;;;;;;;;;;;;5053592;28;19959;-61
2023/10/04 10:06:20;;;;;;;;;;;;;;;;;;5053183;28;19909;-61
2023/10/04 10:08:46;;;;;;;;;;;;;;;;;;5053304;28;19951;-61
2023/10/04 10:11:12;;;;;;;;;;;;;;;;;;5052594;28;19909;-61
2023/10/04 10:13:38;;;;;;;;;;;;;;;;;;5051553;28;19916;-61
2023/10/04 10:16:04;;;;;;;;;;;;;;;;;;5052895;28;19920;-61
2023/10/04 10:18:31;;;;;;;;;;;;;;;;;;5053230;28;20327;-61
2023/10/04 10:20:58;;;;;;;;;;;;;;;;;;5050738;28;19909;-60
2023/10/04 10:23:24;;;;;;;;;;;;;;;;;;5050395;28;20058;-61
2023/10/04 10:25:50;;;;;;;;;;;;;;;;;;5052753;28;19913;-60
2023/10/04 10:28:16;;;;;;;;;;;;;;;;;;5049960;28;19960;-61
2023/10/04 10:30:42;;;;;;;;;;;;;;;;;;5051755;28;20330;-62
2023/10/04 10:33:08;;;;;;;;;;;;;;;;;;5042279;28;19944;-61
2023/10/04 10:35:34;;;;;;;;;;;;;;;;;;5049844;28;19952;-60
2023/10/04 10:38:00;;;;;;;;;;;;;;;;;;5051094;28;20287;-60
2023/10/04 10:40:26;;;;;;;;;;;;;;;;;;5052111;28;19909;-61
2023/10/04 10:42:52;;;;;;;;;;;;;;;;;;5052827;28;19915;-61
2023/10/04 10:45:18;;;;;;;;;;;;;;;;;;5052516;28;20003;-61
2023/10/04 10:47:44;;;;;;;;;;;;;;;;;;5049746;28;19923;-61
2023/10/04 10:50:14;;;;;;;;;;;;;;;;;;5051584;28;19973;-61
2023/10/04 10:52:44;;;;;;;;;;;;;;;;;;5042000;28;20027;-60
2023/10/04 10:55:16;;;;;;;;;;;;;;;;;;5047024;28;20404;-61
2023/10/04 10:57:44;;;;;;;;;;;;;;;;;;5051705;28;20328;-61
2023/10/04 11:00:19;;;;;;;;;;;;;;;;;;5048667;28;20011;-61
2023/10/04 11:02:45;;;;;;;;;;;;;;;;;;5051924;28;20000;-60
2023/10/04 11:05:16;;;;;;;;;;;;;;;;;;5052332;28;19954;-61
2023/10/04 11:07:42;;;;;;;;;;;;;;;;;;5052067;28;19920;-61
2023/10/04 11:10:08;;;;;;;;;;;;;;;;;;5051205;28;19913;-61
2023/10/04 11:12:37;;;;;;;;;;;;;;;;;;5049043;28;20011;-60
2023/10/04 11:15:03;;;;;;;;;;;;;;;;;;5052084;28;19979;-61
2023/10/04 11:17:30;;;;;;;;;;;;;;;;;;5051716;28;19915;-59
2023/10/04 11:19:56;;;;;;;;;;;;;;;;;;5051367;28;19908;-60
2023/10/04 11:22:23;;;;;;;;;;;;;;;;;;5050406;28;19913;-61
2023/10/04 11:24:49;;;;;;;;;;;;;;;;;;5048699;28;20000;-61
2023/10/04 11:27:15;;;;;;;;;;;;;;;;;;5042997;28;19921;-59
2023/10/04 11:29:43;;;;;;;;;;;;;;;;;;5051474;28;19956;-60
2023/10/04 11:32:09;;;;;;;;;;;;;;;;;;5051621;28;20369;-61
2023/10/04 11:34:35;;;;;;;;;;;;;;;;;;5050970;28;19979;-60
2023/10/04 11:37:04;;;;;;;;;;;;;;;;;;5051815;28;20423;-61
2023/10/04 11:39:33;;;;;;;;;;;;;;;;;;5049750;28;19921;-61
2023/10/04 11:41:59;;;;;;;;;;;;;;;;;;5051753;28;20019;-62
2023/10/04 11:44:25;;;;;;;;;;;;;;;;;;5051037;28;19960;-61
2023/10/04 11:46:51;;;;;;;;;;;;;;;;;;5048857;28;20337;-59
2023/10/04 11:49:17;;;;;;;;;;;;;;;;;;5047652;28;19998;-61
2023/10/04 11:51:43;;;;;;;;;;;;;;;;;;5047893;28;19949;-61
2023/10/04 11:54:09;;;;;;;;;;;;;;;;;;5048404;28;20022;-61
2023/10/04 11:56:35;;;;;;;;;;;;;;;;;;5051077;28;20391;-61
2023/10/04 11:59:01;;;;;;;;;;;;;;;;;;5047300;28;19959;-61
2023/10/04 12:01:27;;;;;;;;;;;;;;;;;;5041802;28;19919;-60
2023/10/04 12:04:02;;;;;;;;;;;;;;;;;;5046799;28;19917;-61
2023/10/04 12:06:30;;;;;;;;;;;;;;;;;;5048546;28;19970;-61
2023/10/04 12:08:59;;;;;;;;;;;;;;;;;;5051233;28;19916;-61
2023/10/04 12:11:25;;;;;;;;;;;;;;;;;;5046451;28;20083;-63
2023/10/04 12:13:51;;;;;;;;;;;;;;;;;;5038670;28;19971;-63
2023/10/04 12:16:17;;;;;;;;;;;;;;;;;;5048040;28;19974;-65
2023/10/04 12:18:43;;;;;;;;;;;;;;;;;;5051563;28;19960;-65
2023/10/04 12:21:09;;;;;;;;;;;;;;;;;;5045789;28;19931;-63
2023/10/04 12:23:35;;;;;;;;;;;;;;;;;;5053319;28;19987;-62
2023/10/04 12:26:01;;;;;;;;;;;;;;;;;;5048775;28;20325;-61
2023/10/04 12:28:29;;;;;;;;;;;;;;;;;;5053151;28;19960;-62
2023/10/04 12:30:55;;;;;;;;;;;;;;;;;;5049539;28;20372;-62
2023/10/04 12:33:21;;;;;;;;;;;;;;;;;;5049274;28;19913;-61
2023/10/04 12:35:48;;;;;;;;;;;;;;;;;;5047099;28;19912;-61
2023/10/04 12:38:14;;;;;;;;;;;;;;;;;;5051217;28;19916;-61
2023/10/04 12:40:42;;;;;;;;;;;;;;;;;;5054004;28;19917;-61
2023/10/04 12:43:08;;;;;;;;;;;;;;;;;;5047021;28;20056;-62
2023/10/04 12:45:34;;;;;;;;;;;;;;;;;;5049564;28;20689;-62
2023/10/04 12:48:00;;;;;;;;;;;;;;;;;;5042101;28;19998;-62
2023/10/04 12:50:26;;;;;;;;;;;;;;;;;;5046401;28;20389;-61
2023/10/04 12:52:52;;;;;;;;;;;;;;;;;;5036915;28;19916;-61
2023/10/04 12:55:18;;;;;;;;;;;;;;;;;;5054572;28;19917;-61
2023/10/04 12:57:44;;;;;;;;;;;;;;;;;;5053727;28;19995;-61
2023/10/04 13:00:16;;;;;;;;;;;;;;;;;;5054247;28;20357;-62
2023/10/04 13:02:42;;;;;;;;;;;;;;;;;;5052675;28;19916;-61
2023/10/04 13:05:10;;;;;;;;;;;;;;;;;;5043665;28;20364;-61
2023/10/04 13:07:37;;;;;;;;;;;;;;;;;;5054295;28;19922;-59
2023/10/04 13:10:09;;;;;;;;;;;;;;;;;;5054071;28;20366;-59
2023/10/04 13:12:36;;;;;;;;;;;;;;;;;;5053957;28;19909;-59
2023/10/04 13:15:02;;;;;;;;;;;;;;;;;;5049799;28;20356;-59
2023/10/04 13:17:28;;;;;;;;;;;;;;;;;;5048046;28;19918;-59
2023/10/04 13:19:53;;;;;;;;;;;;;;;;;;5049926;28;19917;-59
2023/10/04 13:22:22;;;;;;;;;;;;;;;;;;5046363;28;20739;-59
2023/10/04 13:24:48;;;;;;;;;;;;;;;;;;5029341;28;19932;-59
2023/10/04 13:27:13;;;;;;;;;;;;;;;;;;5042257;28;19996;-59
2023/10/04 13:29:40;;;;;;;;;;;;;;;;;;5046104;28;20003;-59
2023/10/04 13:32:07;;;;;;;;;;;;;;;;;;5045698;28;19952;-59
2023/10/04 13:34:32;;;;;;;;;;;;;;;;;;5046234;28;20004;-59
2023/10/04 13:36:58;;;;;;;;;;;;;;;;;;5040935;28;20015;-61
2023/10/04 13:39:27;;;;;;;;;;;;;;;;;;5046956;28;19960;-60
2023/10/04 13:41:53;;;;;;;;;;;;;;;;;;5046201;28;19920;-61
2023/10/04 13:44:19;;;;;;;;;;;;;;;;;;5046692;28;20015;-57
2023/10/04 13:46:48;;;;;;;;;;;;;;;;;;5042438;28;20384;-59
2023/10/04 13:49:14;;;;;;;;;;;;;;;;;;5052165;28;19913;-59
2023/10/04 13:51:42;;;;;;;;;;;;;;;;;;5053218;28;19923;-59
2023/10/04 13:54:08;;;;;;;;;;;;;;;;;;5048786;28;19917;-58
2023/10/04 13:56:35;;;;;;;;;;;;;;;;;;5047406;28;19948;-59
2023/10/04 13:59:02;;;;;;;;;;;;;;;;;;5049037;28;19925;-59
2023/10/04 14:01:28;;;;;;;;;;;;;;;;;;5046644;28;20448;-60
2023/10/04 14:03:54;;;;;;;;;;;;;;;;;;5045790;28;20035;-59
2023/10/04 14:06:21;;;;;;;;;;;;;;;;;;5046446;28;20062;-59
2023/10/04 14:08:47;;;;;;;;;;;;;;;;;;5045797;28;19913;-59
2023/10/04 14:11:13;;;;;;;;;;;;;;;;;;5047930;28;19938;-59
2023/10/04 14:13:39;;;;;;;;;;;;;;;;;;5045719;28;19923;-59
2023/10/04 14:16:06;;;;;;;;;;;;;;;;;;5038051;28;20325;-59
2023/10/04 14:18:32;;;;;;;;;;;;;;;;;;5046862;28;19916;-59
2023/10/04 14:20:58;;;;;;;;;;;;;;;;;;5048063;28;19967;-59
2023/10/04 14:23:25;;;;;;;;;;;;;;;;;;5047691;28;19928;-59
2023/10/04 14:25:54;;;;;;;;;;;;;;;;;;5051789;28;19958;-61
2023/10/04 14:28:20;;;;;;;;;;;;;;;;;;5045140;28;20010;-63
2023/10/04 14:30:47;;;;;;;;;;;;;;;;;;5049595;28;20352;-61
2023/10/04 14:33:13;;;;;;;;;;;;;;;;;;5044709;28;19917;-60
2023/10/04 14:35:39;;;;;;;;;;;;;;;;;;5043549;28;20377;-61
2023/10/04 14:38:06;;;;;;;;;;;;;;;;;;5049136;28;19960;-61
2023/10/04 14:40:32;;;;;;;;;;;;;;;;;;5046176;28;20356;-61
2023/10/04 14:42:58;;;;;;;;;;;;;;;;;;5050769;28;19956;-59
2023/10/04 14:45:24;;;;;;;;;;;;;;;;;;5049804;28;19996;-59
2023/10/04 14:47:50;;;;;;;;;;;;;;;;;;5044759;28;20384;-58
2023/10/04 14:50:16;;;;;;;;;;;;;;;;;;5044304;28;20685;-59
2023/10/04 14:52:42;;;;;;;;;;;;;;;;;;5043969;28;20020;-59
2023/10/04 14:55:08;;;;;;;;;;;;;;;;;;5045110;28;19948;-58
2023/10/04 14:57:34;;;;;;;;;;;;;;;;;;5047253;28;20273;-59
2023/10/04 15:00:00;;;;;;;;;;;;;;;;;;5036840;28;19913;-59
2023/10/04 15:02:26;;;;;;;;;;;;;;;;;;5048924;28;19956;-59
2023/10/04 15:04:53;;;;;;;;;;;;;;;;;;5044848;28;20759;-58
2023/10/04 15:07:19;;;;;;;;;;;;;;;;;;5045801;28;19942;-59
2023/10/04 15:09:44;;;;;;;;;;;;;;;;;;5047170;28;20640;-58
2023/10/04 15:12:10;;;;;;;;;;;;;;;;;;5042587;28;19971;-61
2023/10/04 15:14:37;;;;;;;;;;;;;;;;;;5046790;28;19959;-58
2023/10/04 15:17:03;;;;;;;;;;;;;;;;;;5034537;28;19923;-58
2023/10/04 15:19:30;;;;;;;;;;;;;;;;;;5048631;28;19917;-59
2023/10/04 15:21:56;;;;;;;;;;;;;;;;;;5047850;28;19913;-59
2023/10/04 15:24:22;;;;;;;;;;;;;;;;;;5045367;28;20340;-59
2023/10/04 15:26:49;;;;;;;;;;;;;;;;;;5043684;28;20475;-59
2023/10/04 15:29:15;;;;;;;;;;;;;;;;;;5045857;28;20003;-58
2023/10/04 15:31:44;;;;;;;;;;;;;;;;;;5044525;28;19913;-59
2023/10/04 15:34:10;;;;;;;;;;;;;;;;;;5049685;28;19916;-59
2023/10/04 15:36:36;;;;;;;;;;;;;;;;;;5046842;28;19978;-58
2023/10/04 15:39:03;;;;;;;;;;;;;;;;;;5045770;28;19944;-59
2023/10/04 15:41:29;;;;;;;;;;;;;;;;;;5045454;28;20368;-60
2023/10/04 15:43:55;;;;;;;;;;;;;;;;;;5047970;28;19944;-59
2023/10/04 15:46:21;;;;;;;;;;;;;;;;;;5048989;28;20003;-59
2023/10/04 15:48:48;;;;;;;;;;;;;;;;;;5043432;28;19920;-59
2023/10/04 15:51:14;;;;;;;;;;;;;;;;;;5043406;28;20338;-60
2023/10/04 15:53:40;;;;;;;;;;;;;;;;;;5041963;28;19927;-60
2023/10/04 15:56:05;;;;;;;;;;;;;;;;;;5027537;28;19944;-61
2023/10/04 15:58:33;;;;;;;;;;;;;;;;;;5048062;28;19970;-61
2023/10/04 16:01:00;;;;;;;;;;;;;;;;;;5044332;28;19932;-60
2023/10/04 16:03:26;;;;;;;;;;;;;;;;;;5041454;28;19913;-59
2023/10/04 16:05:52;;;;;;;;;;;;;;;;;;5041733;28;19921;-60
2023/10/04 16:08:18;;;;;;;;;;;;;;;;;;5048222;28;19967;-60
2023/10/04 16:10:44;;;;;;;;;;;;;;;;;;5050764;28;19913;-61
2023/10/04 16:13:10;;;;;;;;;;;;;;;;;;5051040;28;19923;-60
2023/10/04 16:15:36;;;;;;;;;;;;;;;;;;5046837;28;19920;-60
2023/10/04 16:18:03;;;;;;;;;;;;;;;;;;5043393;28;19975;-60
2023/10/04 16:20:28;;;;;;;;;;;;;;;;;;5049591;28;19917;-60
2023/10/04 16:22:56;;;;;;;;;;;;;;;;;;5040253;28;19966;-60
2023/10/04 16:25:22;;;;;;;;;;;;;;;;;;5043529;28;19920;-60
2023/10/04 16:27:49;;;;;;;;;;;;;;;;;;5043803;28;19956;-60
2023/10/04 16:30:15;;;;;;;;;;;;;;;;;;5043584;28;19921;-59
2023/10/04 16:32:41;;;;;;;;;;;;;;;;;;5051140;28;19971;-59
2023/10/04 16:35:13;;;;;;;;;;;;;;;;;;5044109;28;19940;-60
2023/10/04 16:37:39;;;;;;;;;;;;;;;;;;5045344;28;19921;-59
2023/10/04 16:40:06;;;;;;;;;;;;;;;;;;5033693;28;20004;-60
2023/10/04 16:42:32;;;;;;;;;;;;;;;;;;5039238;28;19913;-60
2023/10/04 16:44:58;;;;;;;;;;;;;;;;;;5041892;28;19916;-60